createdAt,value
2022-12-18T00:00:49.617Z,54.47
2022-12-18T00:01:52.308Z,57.78
2022-12-18T00:02:54.835Z,53.97
2022-12-18T00:03:57.329Z,61.70
2022-12-18T00:05:02.696Z,57.03
2022-12-18T00:06:05.337Z,60.78
2022-12-18T00:07:07.845Z,58.78
2022-12-18T00:08:10.009Z,61.00
2022-12-18T00:09:12.967Z,59.97
2022-12-18T00:10:15.575Z,59.40
2022-12-18T00:11:20.063Z,55.65
2022-12-18T00:12:22.431Z,56.70
2022-12-18T00:13:24.619Z,57.70
2022-12-18T00:14:27.056Z,60.97
2022-12-18T00:15:29.446Z,61.50
2022-12-18T00:16:33.947Z,58.08
2022-12-18T00:17:36.683Z,57.60
2022-12-18T00:18:40.634Z,59.05
2022-12-18T00:19:43.055Z,56.05
2022-12-18T00:20:45.408Z,55.00
2022-12-18T00:21:47.560Z,62.47
2022-12-18T00:22:50.129Z,54.58
2022-12-18T00:23:53.038Z,60.60
2022-12-18T00:24:55.202Z,50.03
2022-12-18T00:26:02.001Z,60.22
2022-12-18T00:27:06.709Z,69.35
2022-12-18T00:28:09.279Z,58.50
2022-12-18T00:29:14.801Z,67.18
2022-12-18T00:30:19.268Z,60.90
2022-12-18T00:31:24.794Z,67.28
2022-12-18T00:32:29.034Z,67.03
2022-12-18T00:33:31.700Z,71.28
2022-12-18T00:34:33.950Z,63.33
2022-12-18T00:35:36.313Z,67.13
2022-12-18T00:36:38.699Z,78.00
2022-12-18T00:37:41.202Z,75.78
2022-12-18T00:38:43.480Z,83.18
2022-12-18T00:39:45.663Z,73.25
2022-12-18T00:40:48.108Z,64.20
2022-12-18T00:42:08.765Z,62.40
2022-12-18T00:44:15.373Z,58.28
2022-12-18T00:45:17.603Z,67.35
2022-12-18T00:46:20.035Z,78.50
2022-12-18T00:47:23.900Z,67.63
2022-12-18T00:48:26.404Z,63.67
2022-12-18T00:49:28.643Z,65.72
2022-12-18T00:50:30.898Z,62.63
2022-12-18T00:51:35.561Z,57.80
2022-12-18T00:52:40.824Z,62.90
2022-12-18T00:53:43.116Z,71.45
2022-12-18T00:54:45.307Z,83.03
2022-12-18T00:55:48.153Z,68.00
2022-12-18T00:56:50.525Z,68.80
2022-12-18T00:57:53.730Z,64.78
2022-12-18T00:58:56.140Z,66.00
2022-12-18T00:59:58.622Z,64.70
2022-12-18T01:01:01.023Z,63.35
2022-12-18T01:02:03.359Z,63.80
2022-12-18T01:03:06.524Z,60.08
2022-12-18T01:04:09.055Z,55.90
2022-12-18T01:05:13.199Z,57.08
2022-12-18T01:06:17.104Z,54.28
2022-12-18T01:07:19.325Z,61.55
2022-12-18T01:08:21.721Z,61.13
2022-12-18T01:09:24.229Z,58.17
2022-12-18T01:10:27.842Z,52.47
2022-12-18T01:11:33.273Z,53.80
2022-12-18T01:12:35.636Z,86.82
2022-12-18T01:13:39.038Z,65.80
2022-12-18T01:14:41.535Z,61.38
2022-12-18T01:15:52.879Z,60.15
2022-12-18T01:16:55.175Z,62.58
2022-12-18T01:17:57.366Z,58.70
2022-12-18T01:19:02.992Z,57.67
2022-12-18T01:20:05.956Z,56.33
2022-12-18T01:21:10.732Z,50.60
2022-12-18T01:22:13.076Z,59.47
2022-12-18T01:23:15.242Z,56.70
2022-12-18T01:24:17.597Z,55.15
2022-12-18T01:25:19.760Z,59.50
2022-12-18T01:26:22.655Z,52.85
2022-12-18T01:27:26.457Z,55.20
2022-12-18T01:28:28.850Z,54.83
2022-12-18T01:29:31.352Z,61.20
2022-12-18T01:30:33.588Z,57.05
2022-12-18T01:31:35.869Z,48.38
2022-12-18T01:32:38.326Z,50.95
2022-12-18T01:33:41.040Z,58.55
2022-12-18T01:34:43.643Z,53.78
2022-12-18T01:35:45.807Z,57.05
2022-12-18T01:36:48.058Z,57.80
2022-12-18T01:37:50.255Z,52.88
2022-12-18T01:38:53.204Z,53.33
2022-12-18T01:39:55.662Z,47.92
2022-12-18T01:41:00.963Z,57.72
2022-12-18T01:42:14.867Z,52.08
2022-12-18T01:43:18.242Z,50.72
2022-12-18T01:44:59.296Z,48.40
2022-12-18T01:46:01.560Z,49.13
2022-12-18T01:47:03.821Z,55.55
2022-12-18T01:48:09.677Z,58.47
2022-12-18T01:49:12.941Z,47.55
2022-12-18T01:50:39.318Z,42.85
2022-12-18T01:51:42.029Z,43.75
2022-12-18T01:52:48.362Z,51.42
2022-12-18T01:53:50.956Z,50.08
2022-12-18T01:54:54.064Z,68.50
2022-12-18T01:55:58.726Z,55.35
2022-12-18T01:57:01.975Z,47.20
2022-12-18T01:58:04.841Z,44.92
2022-12-18T01:59:11.086Z,54.03
2022-12-18T02:00:16.881Z,48.30
2022-12-18T02:01:20.749Z,50.90
2022-12-18T02:02:23.542Z,42.13
2022-12-18T02:03:26.129Z,54.35
2022-12-18T02:04:28.995Z,53.97
2022-12-18T02:06:02.302Z,54.28
2022-12-18T02:07:10.536Z,46.45
2022-12-18T02:08:15.674Z,48.33
2022-12-18T02:09:24.543Z,46.38
2022-12-18T02:10:36.005Z,47.65
2022-12-18T02:12:16.209Z,52.20
2022-12-18T02:13:53.693Z,45.50
2022-12-18T02:15:51.267Z,52.33
2022-12-18T02:16:58.806Z,51.13
2022-12-18T02:18:24.932Z,39.53
2022-12-18T02:19:58.464Z,42.40
2022-12-18T02:21:10.664Z,45.83
2022-12-18T02:22:51.307Z,47.30
2022-12-18T02:24:15.395Z,43.75
2022-12-18T02:25:25.208Z,48.67
2022-12-18T02:26:35.575Z,51.75
2022-12-18T02:27:40.406Z,50.45
2022-12-18T02:28:52.196Z,51.67
2022-12-18T02:29:59.095Z,52.30
2022-12-18T02:31:07.514Z,50.45
2022-12-18T02:32:17.264Z,44.20
2022-12-18T02:33:21.068Z,46.10
2022-12-18T02:34:29.062Z,54.53
2022-12-18T02:35:32.673Z,51.80
2022-12-18T02:36:41.491Z,55.60
2022-12-18T02:37:46.398Z,46.83
2022-12-18T02:38:49.187Z,51.05
2022-12-18T02:39:56.337Z,46.45
2022-12-18T02:40:59.487Z,58.75
2022-12-18T02:42:08.647Z,52.28
2022-12-18T02:43:13.740Z,48.65
2022-12-18T02:44:16.145Z,49.92
2022-12-18T02:45:18.919Z,52.22
2022-12-18T02:46:51.172Z,48.85
2022-12-18T02:47:53.575Z,55.00
2022-12-18T02:49:10.170Z,63.10
2022-12-18T02:50:25.729Z,48.63
2022-12-18T02:51:59.302Z,51.63
2022-12-18T02:53:01.447Z,46.03
2022-12-18T02:54:19.184Z,48.65
2022-12-18T02:55:47.314Z,57.20
2022-12-18T02:56:57.076Z,46.53
2022-12-18T02:58:33.856Z,53.78
2022-12-18T02:59:59.521Z,50.65
2022-12-18T03:01:14.747Z,50.85
2022-12-18T03:02:17.410Z,50.65
2022-12-18T03:03:26.236Z,51.80
2022-12-18T03:04:32.144Z,55.83
2022-12-18T03:05:41.962Z,60.20
2022-12-18T03:06:49.366Z,51.08
2022-12-18T03:07:57.936Z,47.25
2022-12-18T03:09:15.366Z,53.95
2022-12-18T03:10:22.737Z,51.42
2022-12-18T03:11:46.491Z,58.35
2022-12-18T03:13:16.256Z,51.75
2022-12-18T03:14:21.747Z,54.58
2022-12-18T03:15:32.838Z,47.88
2022-12-18T03:16:44.636Z,56.92
2022-12-18T03:17:53.508Z,49.97
2022-12-18T03:19:02.550Z,47.42
2022-12-18T03:20:12.811Z,51.20
2022-12-18T03:21:19.135Z,57.03
2022-12-18T03:22:24.187Z,60.08
2022-12-18T03:23:33.412Z,51.50
2022-12-18T03:24:39.973Z,54.08
2022-12-18T03:25:45.556Z,55.72
2022-12-18T03:26:54.485Z,51.28
2022-12-18T03:28:00.101Z,54.38
2022-12-18T03:29:09.123Z,49.28
2022-12-18T03:30:14.944Z,50.45
2022-12-18T03:31:19.022Z,53.03
2022-12-18T03:32:32.206Z,53.60
2022-12-18T03:33:59.850Z,52.40
2022-12-18T03:35:13.893Z,43.17
2022-12-18T03:36:22.588Z,50.70
2022-12-18T03:37:26.357Z,45.65
2022-12-18T03:38:28.708Z,52.47
2022-12-18T03:39:31.174Z,49.97
2022-12-18T03:40:44.075Z,45.67
2022-12-18T03:42:28.049Z,43.33
2022-12-18T03:43:42.647Z,48.30
2022-12-18T03:44:57.828Z,53.53
2022-12-18T03:46:27.284Z,46.38
2022-12-18T03:47:45.557Z,40.70
2022-12-18T03:49:00.009Z,46.20
2022-12-18T03:50:17.343Z,52.35
2022-12-18T03:51:33.748Z,43.83
2022-12-18T03:53:03.945Z,44.65
2022-12-18T03:55:17.838Z,43.83
2022-12-18T03:56:23.917Z,44.67
2022-12-18T03:57:30.015Z,52.20
2022-12-18T03:58:37.659Z,50.90
2022-12-18T03:59:57.579Z,49.33
2022-12-18T04:01:10.745Z,47.17
2022-12-18T04:02:15.540Z,47.03
2022-12-18T04:03:23.968Z,46.08
2022-12-18T04:05:36.080Z,50.17
2022-12-18T04:06:41.103Z,48.17
2022-12-18T04:07:48.880Z,43.45
2022-12-18T04:08:51.494Z,41.00
2022-12-18T04:09:59.576Z,43.38
2022-12-18T04:11:02.830Z,53.47
2022-12-18T04:12:05.476Z,47.95
2022-12-18T04:13:08.446Z,38.67
2022-12-18T04:14:17.633Z,44.95
2022-12-18T04:15:21.906Z,33.95
2022-12-18T04:16:27.566Z,37.88
2022-12-18T04:17:32.914Z,40.63
2022-12-18T04:18:35.241Z,31.05
2022-12-18T04:19:37.851Z,36.30
2022-12-18T04:20:40.497Z,37.58
2022-12-18T04:21:43.615Z,35.05
2022-12-18T04:22:47.811Z,48.33
2022-12-18T04:23:50.488Z,39.47
2022-12-18T04:24:55.557Z,38.15
2022-12-18T04:26:05.557Z,31.08
2022-12-18T04:27:30.709Z,38.78
2022-12-18T04:28:35.595Z,42.00
2022-12-18T04:29:38.570Z,45.85
2022-12-18T04:30:41.559Z,45.97
2022-12-18T04:31:44.558Z,40.83
2022-12-18T04:32:52.047Z,41.63
2022-12-18T04:33:55.469Z,43.38
2022-12-18T04:34:58.334Z,43.15
2022-12-18T04:36:01.019Z,33.97
2022-12-18T04:37:03.680Z,45.67
2022-12-18T04:38:09.442Z,45.08
2022-12-18T04:39:11.659Z,41.97
2022-12-18T04:40:14.110Z,45.65
2022-12-18T04:41:21.440Z,41.60
2022-12-18T04:42:25.067Z,42.15
2022-12-18T04:43:27.859Z,51.17
2022-12-18T04:44:30.099Z,41.97
2022-12-18T04:45:33.182Z,47.60
2022-12-18T04:46:35.418Z,43.42
2022-12-18T04:47:37.932Z,45.05
2022-12-18T04:48:40.446Z,42.28
2022-12-18T04:49:42.647Z,43.40
2022-12-18T04:50:44.910Z,51.15
2022-12-18T04:51:47.144Z,42.40
2022-12-18T04:52:49.570Z,42.15
2022-12-18T04:53:51.939Z,50.05
2022-12-18T04:54:54.088Z,50.15
2022-12-18T04:56:11.385Z,46.22
2022-12-18T04:57:13.648Z,47.10
2022-12-18T04:58:17.054Z,44.63
2022-12-18T04:59:19.261Z,45.28
2022-12-18T05:00:22.064Z,49.55
2022-12-18T05:01:27.122Z,50.67
2022-12-18T05:02:36.525Z,44.95
2022-12-18T05:03:39.764Z,51.58
2022-12-18T05:04:42.495Z,41.88
2022-12-18T05:05:44.891Z,46.70
2022-12-18T05:06:47.104Z,44.92
2022-12-18T05:07:49.681Z,53.65
2022-12-18T05:08:52.156Z,47.45
2022-12-18T05:09:54.339Z,49.72
2022-12-18T05:11:05.194Z,52.72
2022-12-18T05:12:07.696Z,42.75
2022-12-18T05:13:09.862Z,43.88
2022-12-18T05:14:13.662Z,46.15
2022-12-18T05:15:15.986Z,50.38
2022-12-18T05:16:18.473Z,40.65
2022-12-18T05:17:20.924Z,42.70
2022-12-18T05:18:24.364Z,48.55
2022-12-18T05:19:26.728Z,52.70
2022-12-18T05:20:29.012Z,49.20
2022-12-18T05:21:31.975Z,47.05
2022-12-18T05:22:34.331Z,45.78
2022-12-18T05:23:37.334Z,53.47
2022-12-18T05:24:39.942Z,42.42
2022-12-18T05:25:42.142Z,46.35
2022-12-18T05:26:44.547Z,48.80
2022-12-18T05:27:47.343Z,49.60
2022-12-18T05:28:49.767Z,42.40
2022-12-18T05:29:51.979Z,53.40
2022-12-18T05:30:57.107Z,53.35
2022-12-18T05:31:59.483Z,46.78
2022-12-18T05:33:03.851Z,54.92
2022-12-18T05:34:07.076Z,50.33
2022-12-18T05:35:11.489Z,50.35
2022-12-18T05:36:13.699Z,49.72
2022-12-18T05:37:16.104Z,47.45
2022-12-18T05:38:18.658Z,50.78
2022-12-18T05:39:23.361Z,48.40
2022-12-18T05:40:25.592Z,47.88
2022-12-18T05:41:28.509Z,42.83
2022-12-18T05:42:31.562Z,46.78
2022-12-18T05:43:35.983Z,46.50
2022-12-18T05:44:38.585Z,45.75
2022-12-18T05:45:42.578Z,53.35
2022-12-18T05:46:44.834Z,42.90
2022-12-18T05:47:47.021Z,51.70
2022-12-18T05:48:51.214Z,49.97
2022-12-18T05:49:53.403Z,42.97
2022-12-18T05:50:55.564Z,44.45
2022-12-18T05:51:57.926Z,52.03
2022-12-18T05:53:00.120Z,46.88
2022-12-18T05:54:04.938Z,51.75
2022-12-18T05:55:08.763Z,45.60
2022-12-18T05:56:13.695Z,48.50
2022-12-18T05:57:15.914Z,46.55
2022-12-18T05:58:18.273Z,45.22
2022-12-18T05:59:20.760Z,47.47
2022-12-18T06:00:26.277Z,44.05
2022-12-18T06:01:28.601Z,41.25
2022-12-18T06:02:30.881Z,45.33
2022-12-18T06:03:34.165Z,48.55
2022-12-18T06:04:36.982Z,45.67
2022-12-18T06:05:43.760Z,40.40
2022-12-18T06:06:46.130Z,47.28
2022-12-18T06:07:48.346Z,40.78
2022-12-18T06:08:51.194Z,51.53
2022-12-18T06:09:53.594Z,46.03
2022-12-18T06:10:55.968Z,48.17
2022-12-18T06:11:58.190Z,47.83
2022-12-18T06:13:03.114Z,43.90
2022-12-18T06:14:06.789Z,47.42
2022-12-18T06:15:09.518Z,46.85
2022-12-18T06:16:11.771Z,47.47
2022-12-18T06:17:14.069Z,45.50
2022-12-18T06:18:16.414Z,43.80
2022-12-18T06:19:18.801Z,42.95
2022-12-18T06:20:26.009Z,44.35
2022-12-18T06:21:33.813Z,43.78
2022-12-18T06:22:36.818Z,47.92
2022-12-18T06:23:39.516Z,43.35
2022-12-18T06:24:44.972Z,43.95
2022-12-18T06:25:47.580Z,48.65
2022-12-18T06:26:49.750Z,42.38
2022-12-18T06:27:51.937Z,46.45
2022-12-18T06:28:54.364Z,45.13
2022-12-18T06:29:56.580Z,42.55
2022-12-18T06:30:58.733Z,44.95
2022-12-18T06:32:03.260Z,47.15
2022-12-18T06:33:05.567Z,52.38
2022-12-18T06:34:07.771Z,42.13
2022-12-18T06:35:10.365Z,48.17
2022-12-18T06:36:14.239Z,42.92
2022-12-18T06:37:16.595Z,39.13
2022-12-18T06:38:18.774Z,45.25
2022-12-18T06:39:25.087Z,44.28
2022-12-18T06:40:27.629Z,43.80
2022-12-18T06:41:29.857Z,45.10
2022-12-18T06:42:32.969Z,48.33
2022-12-18T06:43:35.368Z,48.65
2022-12-18T06:44:37.649Z,53.13
2022-12-18T06:45:40.425Z,53.85
2022-12-18T06:46:45.507Z,49.35
2022-12-18T06:47:47.718Z,45.35
2022-12-18T06:48:51.468Z,42.65
2022-12-18T06:49:53.636Z,46.63
2022-12-18T06:50:56.124Z,53.58
2022-12-18T06:51:58.342Z,47.75
2022-12-18T06:53:00.710Z,48.63
2022-12-18T06:54:06.181Z,42.50
2022-12-18T06:55:09.293Z,46.90
2022-12-18T06:56:11.838Z,46.60
2022-12-18T06:57:14.006Z,40.85
2022-12-18T06:58:16.492Z,47.63
2022-12-18T06:59:18.893Z,40.35
2022-12-18T07:00:22.797Z,41.10
2022-12-18T07:01:25.544Z,44.75
2022-12-18T07:02:27.978Z,38.55
2022-12-18T07:03:30.549Z,38.72
2022-12-18T07:04:33.164Z,44.67
2022-12-18T07:05:35.597Z,43.92
2022-12-18T07:06:37.813Z,47.47
2022-12-18T07:07:40.269Z,45.65
2022-12-18T07:08:44.190Z,38.92
2022-12-18T07:09:46.651Z,45.80
2022-12-18T07:10:55.775Z,43.47
2022-12-18T07:11:58.459Z,45.22
2022-12-18T07:13:03.922Z,39.50
2022-12-18T07:14:06.116Z,46.00
2022-12-18T07:15:08.923Z,47.47
2022-12-18T07:16:24.647Z,47.97
2022-12-18T07:17:27.742Z,43.33
2022-12-18T07:18:30.237Z,41.72
2022-12-18T07:19:32.526Z,41.90
2022-12-18T07:20:34.913Z,47.65
2022-12-18T07:21:37.300Z,44.53
2022-12-18T07:22:39.547Z,40.38
2022-12-18T07:23:43.695Z,41.47
2022-12-18T07:24:47.066Z,46.60
2022-12-18T07:25:52.539Z,41.67
2022-12-18T07:26:54.929Z,45.15
2022-12-18T07:27:57.098Z,41.38
2022-12-18T07:28:59.581Z,42.65
2022-12-18T07:30:01.944Z,44.83
2022-12-18T07:31:12.939Z,44.67
2022-12-18T07:32:15.408Z,41.25
2022-12-18T07:33:17.624Z,51.03
2022-12-18T07:34:19.827Z,47.80
2022-12-18T07:35:25.669Z,41.63
2022-12-18T07:36:28.351Z,37.20
2022-12-18T07:37:30.542Z,43.10
2022-12-18T07:38:33.922Z,37.58
2022-12-18T07:39:36.342Z,36.72
2022-12-18T07:40:38.537Z,39.22
2022-12-18T07:41:47.431Z,42.05
2022-12-18T07:42:51.764Z,41.30
2022-12-18T07:43:53.946Z,38.35
2022-12-18T07:44:56.305Z,46.25
2022-12-18T07:45:58.827Z,43.67
2022-12-18T07:47:01.507Z,38.00
2022-12-18T07:48:03.751Z,38.05
2022-12-18T07:49:05.943Z,38.70
2022-12-18T07:50:08.803Z,40.47
2022-12-18T07:51:13.690Z,33.20
2022-12-18T07:52:16.197Z,34.05
2022-12-18T07:53:18.418Z,31.08
2022-12-18T07:54:20.693Z,35.53
2022-12-18T07:55:25.663Z,35.22
2022-12-18T07:56:30.058Z,35.15
2022-12-18T07:58:55.580Z,31.08
2022-12-18T07:59:57.829Z,34.88
2022-12-18T08:01:12.158Z,35.30
2022-12-18T08:02:14.645Z,27.60
2022-12-18T08:03:17.089Z,33.85
2022-12-18T08:04:19.664Z,30.83
2022-12-18T08:05:24.877Z,31.48
2022-12-18T08:06:27.284Z,32.15
2022-12-18T08:07:29.885Z,33.58
2022-12-18T08:08:32.313Z,31.90
2022-12-18T08:09:34.484Z,32.97
2022-12-18T08:10:39.177Z,35.60
2022-12-18T08:11:43.400Z,28.25
2022-12-18T08:12:45.823Z,30.63
2022-12-18T08:13:48.032Z,31.13
2022-12-18T08:14:50.374Z,28.20
2022-12-18T08:16:03.297Z,27.20
2022-12-18T08:17:05.951Z,30.33
2022-12-18T08:18:12.707Z,34.85
2022-12-18T08:19:16.510Z,26.85
2022-12-18T08:20:19.341Z,30.35
2022-12-18T08:21:25.698Z,31.00
2022-12-18T08:22:28.099Z,27.58
2022-12-18T08:23:30.292Z,31.17
2022-12-18T08:24:32.687Z,29.52
2022-12-18T08:25:35.101Z,32.95
2022-12-18T08:26:39.585Z,32.88
2022-12-18T08:27:44.257Z,29.95
2022-12-18T08:28:46.476Z,26.88
2022-12-18T08:29:48.753Z,31.17
2022-12-18T08:30:53.296Z,30.33
2022-12-18T08:31:55.578Z,29.23
2022-12-18T08:32:58.273Z,27.63
2022-12-18T08:34:00.555Z,35.00
2022-12-18T08:35:05.645Z,29.10
2022-12-18T08:36:10.761Z,27.73
2022-12-18T08:37:13.001Z,30.10
2022-12-18T08:38:15.415Z,29.38
2022-12-18T08:39:17.672Z,30.15
2022-12-18T08:40:20.083Z,28.52
2022-12-18T08:41:25.249Z,26.13
2022-12-18T08:42:46.311Z,32.45
2022-12-18T08:44:06.845Z,35.88
2022-12-18T08:45:09.800Z,31.42
2022-12-18T08:46:13.024Z,31.60
2022-12-18T08:47:18.399Z,31.25
2022-12-18T08:48:22.402Z,26.63
2022-12-18T08:49:24.686Z,29.85
2022-12-18T08:50:27.132Z,30.05
2022-12-18T08:51:29.365Z,33.08
2022-12-18T08:52:33.312Z,26.65
2022-12-18T08:53:36.107Z,29.85
2022-12-18T08:54:38.342Z,35.88
2022-12-18T08:55:41.451Z,30.48
2022-12-18T08:56:44.910Z,29.80
2022-12-18T08:57:50.455Z,29.38
2022-12-18T08:58:56.056Z,30.90
2022-12-18T08:59:58.195Z,31.30
2022-12-18T09:01:03.737Z,29.73
2022-12-18T09:02:06.116Z,34.88
2022-12-18T09:03:16.353Z,35.92
2022-12-18T09:04:19.041Z,29.45
2022-12-18T09:05:23.274Z,33.75
2022-12-18T09:06:26.556Z,33.83
2022-12-18T09:07:28.719Z,32.45
2022-12-18T09:08:31.156Z,33.20
2022-12-18T09:09:37.092Z,32.05
2022-12-18T09:10:46.633Z,37.75
2022-12-18T09:11:48.851Z,35.53
2022-12-18T09:12:51.279Z,31.13
2022-12-18T09:13:54.783Z,32.08
2022-12-18T09:14:57.850Z,31.50
2022-12-18T09:16:00.022Z,36.58
2022-12-18T09:17:05.096Z,30.50
2022-12-18T09:18:08.150Z,37.80
2022-12-18T09:19:11.117Z,28.20
2022-12-18T09:20:13.357Z,28.98
2022-12-18T09:21:18.950Z,31.20
2022-12-18T09:22:22.479Z,30.60
2022-12-18T09:23:24.906Z,30.90
2022-12-18T09:24:27.290Z,33.60
2022-12-18T09:25:34.137Z,31.38
2022-12-18T09:26:36.794Z,29.75
2022-12-18T09:27:39.002Z,29.05
2022-12-18T09:28:44.005Z,32.13
2022-12-18T09:29:46.502Z,34.00
2022-12-18T09:30:50.612Z,28.65
2022-12-18T09:31:52.879Z,27.88
2022-12-18T09:32:55.334Z,32.17
2022-12-18T09:33:57.994Z,29.30
2022-12-18T09:35:00.833Z,27.52
2022-12-18T09:36:09.278Z,32.20
2022-12-18T09:37:11.516Z,26.88
2022-12-18T09:38:20.000Z,28.73
2022-12-18T09:39:25.142Z,30.02
2022-12-18T09:40:33.809Z,25.10
2022-12-18T09:41:45.158Z,24.58
2022-12-18T09:42:54.348Z,26.17
2022-12-18T09:44:02.043Z,24.02
2022-12-18T09:45:05.085Z,22.65
2022-12-18T09:46:17.214Z,21.65
2022-12-18T09:47:38.683Z,21.58
2022-12-18T09:48:46.929Z,22.75
2022-12-18T09:49:53.966Z,19.73
2022-12-18T09:51:04.038Z,23.25
2022-12-18T09:52:15.498Z,19.05
2022-12-18T09:53:23.698Z,24.40
2022-12-18T09:54:40.397Z,23.65
2022-12-18T09:55:47.887Z,27.25
2022-12-18T09:56:50.281Z,26.48
2022-12-18T09:57:57.972Z,28.88
2022-12-18T09:59:01.934Z,27.48
2022-12-18T10:00:19.516Z,21.00
2022-12-18T10:01:34.035Z,22.30
2022-12-18T10:02:41.799Z,25.95
2022-12-18T10:03:44.406Z,23.38
2022-12-18T10:05:07.882Z,25.02
2022-12-18T10:06:26.237Z,24.52
2022-12-18T10:07:52.663Z,26.45
2022-12-18T10:09:21.657Z,27.17
2022-12-18T10:10:29.879Z,27.45
2022-12-18T10:11:41.907Z,27.85
2022-12-18T10:12:49.342Z,26.10
2022-12-18T10:14:05.594Z,27.08
2022-12-18T10:15:38.642Z,26.70
2022-12-18T10:16:56.286Z,24.33
2022-12-18T10:18:22.168Z,27.05
2022-12-18T10:20:02.726Z,27.42
2022-12-18T10:21:12.418Z,26.80
2022-12-18T10:22:28.454Z,24.85
2022-12-18T10:23:48.207Z,28.77
2022-12-18T10:25:08.028Z,25.48
2022-12-18T10:26:13.563Z,24.48
2022-12-18T10:27:20.459Z,27.92
2022-12-18T10:28:24.388Z,30.02
2022-12-18T10:29:27.184Z,24.48
2022-12-18T10:30:29.556Z,25.33
2022-12-18T10:31:31.799Z,27.33
2022-12-18T10:32:34.266Z,26.73
2022-12-18T10:33:36.578Z,25.20
2022-12-18T10:34:38.787Z,25.23
2022-12-18T10:35:43.334Z,27.15
2022-12-18T10:36:45.616Z,23.60
2022-12-18T10:38:05.258Z,24.42
2022-12-18T10:39:24.918Z,25.10
2022-12-18T10:40:27.429Z,27.02
2022-12-18T10:41:31.851Z,24.00
2022-12-18T10:42:34.578Z,23.35
2022-12-18T10:43:39.565Z,25.65
2022-12-18T10:44:41.952Z,26.95
2022-12-18T10:46:03.912Z,27.15
2022-12-18T10:47:13.644Z,26.83
2022-12-18T10:48:22.368Z,29.45
2022-12-18T10:49:28.822Z,35.85
2022-12-18T10:51:09.178Z,28.63
2022-12-18T10:52:17.032Z,28.13
2022-12-18T10:53:26.292Z,24.17
2022-12-18T10:54:30.879Z,28.02
2022-12-18T10:55:36.578Z,26.73
2022-12-18T10:56:39.224Z,28.42
2022-12-18T10:57:42.634Z,26.08
2022-12-18T10:58:57.205Z,26.33
2022-12-18T11:00:02.290Z,23.65
2022-12-18T11:01:21.063Z,23.50
2022-12-18T11:02:35.775Z,22.95
2022-12-18T11:03:47.041Z,23.55
2022-12-18T11:04:53.586Z,25.23
2022-12-18T11:06:19.083Z,23.55
2022-12-18T11:07:21.571Z,23.77
2022-12-18T11:08:24.319Z,30.15
2022-12-18T11:09:30.187Z,23.50
2022-12-18T11:10:36.220Z,23.92
2022-12-18T11:11:38.434Z,30.70
2022-12-18T11:12:40.873Z,24.50
2022-12-18T11:14:12.739Z,25.95
2022-12-18T11:15:21.261Z,29.45
2022-12-18T11:17:35.764Z,26.60
2022-12-18T11:18:38.428Z,24.67
2022-12-18T11:19:44.982Z,25.83
2022-12-18T11:21:15.819Z,24.45
2022-12-18T11:22:29.133Z,25.17
2022-12-18T11:23:32.680Z,24.27
2022-12-18T11:24:36.848Z,25.83
2022-12-18T11:25:39.454Z,28.98
2022-12-18T11:26:44.289Z,27.67
2022-12-18T11:27:56.383Z,31.80
2022-12-18T11:29:18.257Z,26.27
2022-12-18T11:30:28.971Z,31.85
2022-12-18T11:31:34.393Z,26.48
2022-12-18T11:32:47.550Z,27.13
2022-12-18T11:34:19.679Z,24.83
2022-12-18T11:35:24.389Z,27.52
2022-12-18T11:36:32.229Z,25.63
2022-12-18T11:37:35.769Z,27.88
2022-12-18T11:38:43.824Z,30.10
2022-12-18T11:39:52.665Z,25.92
2022-12-18T11:41:16.966Z,23.10
2022-12-18T11:42:29.134Z,27.10
2022-12-18T11:43:59.777Z,24.98
2022-12-18T11:45:14.194Z,21.83
2022-12-18T11:46:25.249Z,22.52
2022-12-18T11:47:41.744Z,22.52
2022-12-18T11:48:55.293Z,22.98
2022-12-18T11:50:01.973Z,21.63
2022-12-18T11:51:09.520Z,19.23
2022-12-18T11:52:25.370Z,22.10
2022-12-18T11:53:28.659Z,27.35
2022-12-18T11:54:30.942Z,19.83
2022-12-18T11:55:50.381Z,21.48
2022-12-18T11:56:59.577Z,24.08
2022-12-18T11:58:22.510Z,21.70
2022-12-18T11:59:49.213Z,23.35
2022-12-18T12:01:07.823Z,25.05
2022-12-18T12:02:30.335Z,22.13
2022-12-18T12:03:53.006Z,21.88
2022-12-18T12:05:13.433Z,26.13
2022-12-18T12:06:37.318Z,30.73
2022-12-18T12:07:48.409Z,28.23
2022-12-18T12:09:12.687Z,29.27
2022-12-18T12:10:30.051Z,28.92
2022-12-18T12:12:09.896Z,31.58
2022-12-18T12:13:17.720Z,27.73
2022-12-18T12:14:42.559Z,26.45
2022-12-18T12:16:02.476Z,28.50
2022-12-18T12:17:29.284Z,26.55
2022-12-18T12:18:50.940Z,25.23
2022-12-18T12:20:19.248Z,23.92
2022-12-18T12:21:44.187Z,30.90
2022-12-18T12:23:28.101Z,27.80
2022-12-18T12:24:36.489Z,31.77
2022-12-18T12:26:05.851Z,27.75
2022-12-18T12:27:27.834Z,31.40
2022-12-18T12:28:33.517Z,28.33
2022-12-18T12:29:50.274Z,24.75
2022-12-18T12:31:19.459Z,30.95
2022-12-18T12:32:46.761Z,29.67
2022-12-18T12:34:31.212Z,24.63
2022-12-18T12:35:59.166Z,29.77
2022-12-18T12:45:07.832Z,26.92
2022-12-18T12:46:14.343Z,27.08
2022-12-18T12:47:32.513Z,25.75
2022-12-18T12:48:55.523Z,26.98
2022-12-18T12:50:02.392Z,26.83
2022-12-18T12:51:30.964Z,40.63
2022-12-18T12:52:43.805Z,26.17
2022-12-18T12:53:47.451Z,30.48
2022-12-18T12:54:50.780Z,27.65
2022-12-18T12:55:54.371Z,26.85
2022-12-18T12:56:59.423Z,27.45
2022-12-18T12:58:22.782Z,27.70
2022-12-18T12:59:37.193Z,27.40
2022-12-18T13:00:53.970Z,27.80
2022-12-18T13:02:31.117Z,26.38
2022-12-18T13:03:51.436Z,23.83
2022-12-18T13:05:01.973Z,26.15
2022-12-18T13:06:13.825Z,24.83
2022-12-18T13:07:47.373Z,29.15
2022-12-18T13:08:56.211Z,27.38
2022-12-18T13:10:17.713Z,29.75
2022-12-18T13:12:00.523Z,24.80
2022-12-18T13:14:05.764Z,27.88
2022-12-18T13:15:23.104Z,30.23
2022-12-18T13:16:28.264Z,35.85
2022-12-18T13:17:32.084Z,33.00
2022-12-18T13:18:35.139Z,32.30
2022-12-18T13:19:37.600Z,30.48
2022-12-18T13:20:55.153Z,31.10
2022-12-18T13:23:26.816Z,33.97
2022-12-18T13:24:32.208Z,28.50
2022-12-18T13:25:37.591Z,28.17
2022-12-18T13:26:40.275Z,33.22
2022-12-18T13:27:46.259Z,34.80
2022-12-18T13:28:49.339Z,36.55
2022-12-18T13:29:52.832Z,29.85
2022-12-18T13:30:58.397Z,36.65
2022-12-18T13:32:02.060Z,31.20
2022-12-18T13:33:22.952Z,29.88
2022-12-18T13:34:27.483Z,30.10
2022-12-18T13:35:30.908Z,29.88
2022-12-18T13:36:34.511Z,32.38
2022-12-18T13:37:52.738Z,28.88
2022-12-18T13:39:26.546Z,30.35
2022-12-18T13:40:42.125Z,28.60
2022-12-18T13:41:48.899Z,27.65
2022-12-18T13:43:09.788Z,33.78
2022-12-18T13:46:03.850Z,25.38
2022-12-18T13:47:34.721Z,26.30
2022-12-18T13:48:39.466Z,30.50
2022-12-18T13:49:45.002Z,25.33
2022-12-18T13:50:53.970Z,26.65
2022-12-18T13:51:57.262Z,28.42
2022-12-18T13:53:00.419Z,35.15
2022-12-18T13:54:21.089Z,29.80
2022-12-18T13:55:23.596Z,27.63
2022-12-18T13:56:30.337Z,27.05
2022-12-18T13:57:35.423Z,32.53
2022-12-18T13:58:38.033Z,26.40
2022-12-18T13:59:40.991Z,28.75
2022-12-18T14:00:44.278Z,27.88
2022-12-18T14:01:58.625Z,25.35
2022-12-18T14:03:01.419Z,29.20
2022-12-18T14:04:12.183Z,27.17
2022-12-18T14:05:31.008Z,27.00
2022-12-18T14:06:33.475Z,28.92
2022-12-18T14:07:50.361Z,29.33
2022-12-18T14:08:53.899Z,28.08
2022-12-18T14:10:12.251Z,26.70
2022-12-18T14:11:26.661Z,29.55
2022-12-18T14:12:51.471Z,26.77
2022-12-18T14:13:53.981Z,27.48
2022-12-18T14:14:56.905Z,29.75
2022-12-18T14:16:03.103Z,27.27
2022-12-18T14:17:11.461Z,26.58
2022-12-18T14:18:51.680Z,28.92
2022-12-18T14:19:54.036Z,27.70
2022-12-18T14:20:58.875Z,30.05
2022-12-18T14:22:01.568Z,27.42
2022-12-18T14:23:03.849Z,31.92
2022-12-18T14:24:15.595Z,33.40
2022-12-18T14:25:24.257Z,30.98
2022-12-18T14:26:31.691Z,34.03
2022-12-18T14:27:39.318Z,27.67
2022-12-18T14:28:45.218Z,30.27
2022-12-18T14:29:47.434Z,31.30
2022-12-18T14:30:50.776Z,30.95
2022-12-18T14:32:15.025Z,31.40
2022-12-18T14:33:22.521Z,34.40
2022-12-18T14:34:27.802Z,30.58
2022-12-18T14:35:29.971Z,33.40
2022-12-18T14:36:32.581Z,35.05
2022-12-18T14:37:34.997Z,33.15
2022-12-18T14:38:39.898Z,31.08
2022-12-18T14:39:53.693Z,28.80
2022-12-18T14:41:05.225Z,30.25
2022-12-18T14:42:11.722Z,31.35
2022-12-18T14:43:13.950Z,35.92
2022-12-18T14:44:16.385Z,34.33
2022-12-18T14:45:42.159Z,33.60
2022-12-18T14:46:47.185Z,35.83
2022-12-18T14:47:49.399Z,31.50
2022-12-18T14:48:51.933Z,29.45
2022-12-18T14:49:54.215Z,33.30